Terminal Aerodrome Forecast
Issued by NWS Louisville, KY

Home | Current Version | Previous Version | Text Only | Print | Product List | Glossary On
Versions: 1 2 3 4 5 6 7 8 9 10 11 12 13 14 15 16
000
FTUS43 KLMK 281100
TAFSDF
TAF
KSDF 281129Z 2812/2918 33010KT 6SM -DZ BKN010
      TEMPO 2812/2816 BKN009
     FM281600 33006KT P6SM BKN012
     FM282300 36005KT P6SM BKN022=

USA.gov is the U.S. government's official web portal to all federal, state and local government web resources and services.